To NAV CANADA Home Page Login to a new session Search on AWWS site Disclaimer Vers la page française équivalente Tips FAQ What's new on the site To the Forecasts and Observations / NOTAM section To "File a Flight Plan" website Publications and other links Update of the User's profile FIC Telephone Numbers My Weather Data Folder Route Weather Data Regional Weather Data Local Weather Data To the Forecasts and Observations / NOTAM section
Request Generated 03/19/2019 at 23:04:43 UTC . Weather information available at that time is displayed.

METAR/TAF

FORT CHIPEWYAN/AB    (show WxCam)

METAR CYPY 192300Z AUTO 27006KT 9SM CLR 11/M01 A2995 RMK SLP155=
METAR CYPY 192200Z AUTO 27006KT 9SM CLR 12/M01 A2995 RMK SLP156=
METAR CYPY 192100Z AUTO 27006KT 9SM CLR 12/M01 A2996 RMK SLP156=

TAF CYPY 191738Z 1918/2006 26005KT P6SM SKC
RMK FCST BASED ON AUTO OBS. NXT FCST BY 200000Z=
Your time UTC time
Weather data provided by Environment Canada and NAV CANADA